sensor_id;sensor_type;location;lat;lon;timestamp;P1;durP1;ratioP1;P2;durP2;ratioP2
21233;SDS011;10774;42.178;26.578;2022-10-16T00:00:21;8.63;;;2.55;;
21233;SDS011;10774;42.178;26.578;2022-10-16T00:02:46;11.63;;;3.60;;
21233;SDS011;10774;42.178;26.578;2022-10-16T00:05:11;6.90;;;3.13;;
21233;SDS011;10774;42.178;26.578;2022-10-16T00:07:37;10.25;;;3.35;;
21233;SDS011;10774;42.178;26.578;2022-10-16T00:10:02;9.85;;;3.40;;
21233;SDS011;10774;42.178;26.578;2022-10-16T00:12:28;8.35;;;3.40;;
21233;SDS011;10774;42.178;26.578;2022-10-16T00:14:53;9.35;;;3.75;;
21233;SDS011;10774;42.178;26.578;2022-10-16T00:17:19;8.80;;;3.60;;
21233;SDS011;10774;42.178;26.578;2022-10-16T00:19:44;6.88;;;3.60;;
21233;SDS011;10774;42.178;26.578;2022-10-16T00:22:09;5.90;;;3.20;;
21233;SDS011;10774;42.178;26.578;2022-10-16T00:24:36;7.88;;;3.20;;
21233;SDS011;10774;42.178;26.578;2022-10-16T00:27:01;5.93;;;3.40;;
21233;SDS011;10774;42.178;26.578;2022-10-16T00:29:27;8.07;;;3.25;;
21233;SDS011;10774;42.178;26.578;2022-10-16T00:31:52;8.65;;;3.00;;
21233;SDS011;10774;42.178;26.578;2022-10-16T00:34:18;7.40;;;3.45;;
21233;SDS011;10774;42.178;26.578;2022-10-16T00:36:43;8.70;;;3.40;;
21233;SDS011;10774;42.178;26.578;2022-10-16T00:39:08;7.38;;;3.25;;
21233;SDS011;10774;42.178;26.578;2022-10-16T00:41:34;8.45;;;3.47;;
21233;SDS011;10774;42.178;26.578;2022-10-16T00:44:01;6.28;;;3.63;;
21233;SDS011;10774;42.178;26.578;2022-10-16T00:46:31;6.28;;;2.83;;
21233;SDS011;10774;42.178;26.578;2022-10-16T00:49:08;6.68;;;2.97;;
21233;SDS011;10774;42.178;26.578;2022-10-16T00:51:41;10.02;;;3.55;;
21233;SDS011;10774;42.178;26.578;2022-10-16T00:54:12;7.70;;;3.22;;
21233;SDS011;10774;42.178;26.578;2022-10-16T00:56:40;7.35;;;2.97;;
21233;SDS011;10774;42.178;26.578;2022-10-16T00:59:07;8.40;;;3.10;;
21233;SDS011;10774;42.178;26.578;2022-10-16T01:01:56;6.00;;;2.83;;
21233;SDS011;10774;42.178;26.578;2022-10-16T01:04:23;6.72;;;2.80;;
21233;SDS011;10774;42.178;26.578;2022-10-16T01:06:59;8.30;;;2.95;;
21233;SDS011;10774;42.178;26.578;2022-10-16T01:12:54;7.35;;;3.15;;
21233;SDS011;10774;42.178;26.578;2022-10-16T01:18:17;8.50;;;3.20;;
21233;SDS011;10774;42.178;26.578;2022-10-16T01:20:45;6.68;;;3.20;;
21233;SDS011;10774;42.178;26.578;2022-10-16T01:28:41;8.02;;;3.42;;
21233;SDS011;10774;42.178;26.578;2022-10-16T01:31:14;10.73;;;3.22;;
21233;SDS011;10774;42.178;26.578;2022-10-16T01:33:43;7.07;;;3.10;;
21233;SDS011;10774;42.178;26.578;2022-10-16T01:36:16;7.03;;;2.97;;
21233;SDS011;10774;42.178;26.578;2022-10-16T01:38:47;6.90;;;2.75;;
21233;SDS011;10774;42.178;26.578;2022-10-16T01:41:19;4.68;;;3.05;;
21233;SDS011;10774;42.178;26.578;2022-10-16T01:43:53;7.45;;;3.33;;
21233;SDS011;10774;42.178;26.578;2022-10-16T01:46:29;6.28;;;3.22;;
21233;SDS011;10774;42.178;26.578;2022-10-16T01:48:56;9.18;;;3.53;;
21233;SDS011;10774;42.178;26.578;2022-10-16T01:51:24;8.40;;;3.80;;
21233;SDS011;10774;42.178;26.578;2022-10-16T01:53:52;10.90;;;3.60;;
21233;SDS011;10774;42.178;26.578;2022-10-16T01:56:20;6.20;;;3.65;;
21233;SDS011;10774;42.178;26.578;2022-10-16T01:58:53;9.95;;;3.65;;
21233;SDS011;10774;42.178;26.578;2022-10-16T02:01:23;10.13;;;3.92;;
21233;SDS011;10774;42.178;26.578;2022-10-16T02:03:51;9.13;;;3.83;;
21233;SDS011;10774;42.178;26.578;2022-10-16T02:06:20;7.22;;;3.58;;
21233;SDS011;10774;42.178;26.578;2022-10-16T02:08:45;9.10;;;3.70;;
21233;SDS011;10774;42.178;26.578;2022-10-16T02:11:11;7.80;;;3.80;;
21233;SDS011;10774;42.178;26.578;2022-10-16T02:13:39;6.28;;;3.72;;
21233;SDS011;10774;42.178;26.578;2022-10-16T02:16:10;7.88;;;3.38;;
21233;SDS011;10774;42.178;26.578;2022-10-16T02:18:37;10.50;;;4.63;;
21233;SDS011;10774;42.178;26.578;2022-10-16T02:26:22;11.50;;;4.72;;
21233;SDS011;10774;42.178;26.578;2022-10-16T02:28:59;9.23;;;5.03;;
21233;SDS011;10774;42.178;26.578;2022-10-16T02:31:31;8.30;;;5.63;;
21233;SDS011;10774;42.178;26.578;2022-10-16T02:34:00;10.38;;;5.53;;
21233;SDS011;10774;42.178;26.578;2022-10-16T02:36:30;11.23;;;4.78;;
21233;SDS011;10774;42.178;26.578;2022-10-16T02:38:57;12.55;;;5.05;;
21233;SDS011;10774;42.178;26.578;2022-10-16T02:41:25;9.68;;;5.47;;
21233;SDS011;10774;42.178;26.578;2022-10-16T02:43:51;10.80;;;5.63;;
21233;SDS011;10774;42.178;26.578;2022-10-16T02:46:16;7.70;;;5.43;;
21233;SDS011;10774;42.178;26.578;2022-10-16T02:48:43;9.15;;;5.65;;
21233;SDS011;10774;42.178;26.578;2022-10-16T02:51:08;11.18;;;5.43;;
21233;SDS011;10774;42.178;26.578;2022-10-16T02:53:34;13.65;;;5.30;;
21233;SDS011;10774;42.178;26.578;2022-10-16T02:55:59;7.88;;;5.10;;
21233;SDS011;10774;42.178;26.578;2022-10-16T02:58:24;7.35;;;5.45;;
21233;SDS011;10774;42.178;26.578;2022-10-16T03:00:50;9.93;;;6.03;;
21233;SDS011;10774;42.178;26.578;2022-10-16T03:03:15;8.27;;;6.28;;
21233;SDS011;10774;42.178;26.578;2022-10-16T03:05:42;8.23;;;6.07;;
21233;SDS011;10774;42.178;26.578;2022-10-16T03:08:08;12.68;;;6.30;;
21233;SDS011;10774;42.178;26.578;2022-10-16T03:10:34;12.63;;;6.72;;
21233;SDS011;10774;42.178;26.578;2022-10-16T03:12:59;11.80;;;6.80;;
21233;SDS011;10774;42.178;26.578;2022-10-16T03:15:25;12.00;;;6.95;;
21233;SDS011;10774;42.178;26.578;2022-10-16T03:17:50;13.20;;;6.72;;
21233;SDS011;10774;42.178;26.578;2022-10-16T03:20:16;10.52;;;7.35;;
21233;SDS011;10774;42.178;26.578;2022-10-16T03:22:41;13.25;;;7.63;;
21233;SDS011;10774;42.178;26.578;2022-10-16T03:25:07;13.63;;;7.13;;
21233;SDS011;10774;42.178;26.578;2022-10-16T03:27:32;11.73;;;7.13;;
21233;SDS011;10774;42.178;26.578;2022-10-16T03:29:58;9.63;;;7.50;;
21233;SDS011;10774;42.178;26.578;2022-10-16T03:32:23;12.93;;;8.23;;
21233;SDS011;10774;42.178;26.578;2022-10-16T03:34:50;13.98;;;7.88;;
21233;SDS011;10774;42.178;26.578;2022-10-16T03:37:15;11.77;;;9.57;;
21233;SDS011;10774;42.178;26.578;2022-10-16T03:39:41;11.95;;;10.10;;
21233;SDS011;10774;42.178;26.578;2022-10-16T03:42:06;12.13;;;8.80;;
21233;SDS011;10774;42.178;26.578;2022-10-16T03:44:32;12.73;;;9.00;;
21233;SDS011;10774;42.178;26.578;2022-10-16T03:46:57;13.90;;;9.57;;
21233;SDS011;10774;42.178;26.578;2022-10-16T03:49:22;11.98;;;9.50;;
21233;SDS011;10774;42.178;26.578;2022-10-16T03:51:48;12.52;;;9.07;;
21233;SDS011;10774;42.178;26.578;2022-10-16T03:54:13;11.25;;;8.80;;
21233;SDS011;10774;42.178;26.578;2022-10-16T03:56:39;10.73;;;7.32;;
21233;SDS011;10774;42.178;26.578;2022-10-16T03:59:04;15.30;;;8.35;;
21233;SDS011;10774;42.178;26.578;2022-10-16T04:01:30;9.73;;;7.15;;
21233;SDS011;10774;42.178;26.578;2022-10-16T04:03:55;9.68;;;6.53;;
21233;SDS011;10774;42.178;26.578;2022-10-16T04:06:21;11.63;;;8.02;;
21233;SDS011;10774;42.178;26.578;2022-10-16T04:08:46;11.27;;;7.15;;
21233;SDS011;10774;42.178;26.578;2022-10-16T04:11:11;15.60;;;8.77;;
21233;SDS011;10774;42.178;26.578;2022-10-16T04:13:37;16.30;;;9.60;;
21233;SDS011;10774;42.178;26.578;2022-10-16T04:16:03;13.85;;;8.55;;
21233;SDS011;10774;42.178;26.578;2022-10-16T04:18:28;12.45;;;7.90;;
21233;SDS011;10774;42.178;26.578;2022-10-16T04:20:54;13.00;;;7.78;;
21233;SDS011;10774;42.178;26.578;2022-10-16T04:23:19;11.27;;;7.75;;
21233;SDS011;10774;42.178;26.578;2022-10-16T04:25:45;14.50;;;7.82;;
21233;SDS011;10774;42.178;26.578;2022-10-16T04:28:10;11.02;;;8.18;;
21233;SDS011;10774;42.178;26.578;2022-10-16T04:30:37;12.45;;;7.40;;
21233;SDS011;10774;42.178;26.578;2022-10-16T04:33:04;10.40;;;7.95;;
21233;SDS011;10774;42.178;26.578;2022-10-16T04:35:29;11.60;;;7.72;;
21233;SDS011;10774;42.178;26.578;2022-10-16T04:37:57;12.90;;;7.93;;
21233;SDS011;10774;42.178;26.578;2022-10-16T04:40:23;11.63;;;7.55;;
21233;SDS011;10774;42.178;26.578;2022-10-16T04:42:48;12.02;;;8.75;;
21233;SDS011;10774;42.178;26.578;2022-10-16T04:45:14;12.65;;;7.97;;
21233;SDS011;10774;42.178;26.578;2022-10-16T04:47:39;11.25;;;9.10;;
21233;SDS011;10774;42.178;26.578;2022-10-16T04:50:05;16.60;;;9.30;;
21233;SDS011;10774;42.178;26.578;2022-10-16T04:52:31;16.55;;;9.90;;
21233;SDS011;10774;42.178;26.578;2022-10-16T04:54:57;12.82;;;9.00;;
21233;SDS011;10774;42.178;26.578;2022-10-16T04:57:26;12.18;;;9.32;;
21233;SDS011;10774;42.178;26.578;2022-10-16T04:59:52;12.20;;;8.90;;
21233;SDS011;10774;42.178;26.578;2022-10-16T05:02:17;11.80;;;8.73;;
21233;SDS011;10774;42.178;26.578;2022-10-16T05:04:43;15.98;;;8.25;;
21233;SDS011;10774;42.178;26.578;2022-10-16T05:07:08;11.48;;;8.30;;
21233;SDS011;10774;42.178;26.578;2022-10-16T05:09:34;13.52;;;9.05;;
21233;SDS011;10774;42.178;26.578;2022-10-16T05:11:59;13.15;;;8.80;;
21233;SDS011;10774;42.178;26.578;2022-10-16T05:14:24;15.13;;;9.30;;
21233;SDS011;10774;42.178;26.578;2022-10-16T05:16:50;15.02;;;9.10;;
21233;SDS011;10774;42.178;26.578;2022-10-16T05:19:16;13.02;;;8.00;;
21233;SDS011;10774;42.178;26.578;2022-10-16T05:21:42;12.48;;;7.85;;
21233;SDS011;10774;42.178;26.578;2022-10-16T05:24:07;11.77;;;8.73;;
21233;SDS011;10774;42.178;26.578;2022-10-16T05:26:34;12.43;;;8.20;;
21233;SDS011;10774;42.178;26.578;2022-10-16T05:28:59;13.73;;;10.00;;
21233;SDS011;10774;42.178;26.578;2022-10-16T05:31:25;11.15;;;8.27;;
21233;SDS011;10774;42.178;26.578;2022-10-16T05:33:51;14.10;;;8.73;;
21233;SDS011;10774;42.178;26.578;2022-10-16T05:36:16;10.82;;;8.25;;
21233;SDS011;10774;42.178;26.578;2022-10-16T05:38:43;14.10;;;8.20;;
21233;SDS011;10774;42.178;26.578;2022-10-16T05:41:08;16.88;;;9.13;;
21233;SDS011;10774;42.178;26.578;2022-10-16T05:43:34;11.27;;;8.18;;
21233;SDS011;10774;42.178;26.578;2022-10-16T05:46:01;14.00;;;8.07;;
21233;SDS011;10774;42.178;26.578;2022-10-16T05:48:30;11.98;;;8.23;;
21233;SDS011;10774;42.178;26.578;2022-10-16T05:51:03;11.20;;;7.72;;
21233;SDS011;10774;42.178;26.578;2022-10-16T05:53:32;13.43;;;9.18;;
21233;SDS011;10774;42.178;26.578;2022-10-16T05:55:59;11.75;;;9.07;;
21233;SDS011;10774;42.178;26.578;2022-10-16T05:58:25;12.70;;;8.07;;
21233;SDS011;10774;42.178;26.578;2022-10-16T06:00:54;9.73;;;8.32;;
21233;SDS011;10774;42.178;26.578;2022-10-16T06:03:20;12.48;;;8.13;;
21233;SDS011;10774;42.178;26.578;2022-10-16T06:05:46;8.85;;;7.63;;
21233;SDS011;10774;42.178;26.578;2022-10-16T06:08:11;11.18;;;7.95;;
21233;SDS011;10774;42.178;26.578;2022-10-16T06:10:37;13.95;;;7.97;;
21233;SDS011;10774;42.178;26.578;2022-10-16T06:13:02;11.07;;;8.00;;
21233;SDS011;10774;42.178;26.578;2022-10-16T06:15:28;11.57;;;8.10;;
21233;SDS011;10774;42.178;26.578;2022-10-16T06:17:53;12.90;;;8.10;;
21233;SDS011;10774;42.178;26.578;2022-10-16T06:20:18;11.82;;;8.20;;
21233;SDS011;10774;42.178;26.578;2022-10-16T06:22:44;8.90;;;7.28;;
21233;SDS011;10774;42.178;26.578;2022-10-16T06:25:09;11.07;;;6.78;;
21233;SDS011;10774;42.178;26.578;2022-10-16T06:27:35;10.48;;;7.30;;
21233;SDS011;10774;42.178;26.578;2022-10-16T06:30:00;10.63;;;7.20;;
21233;SDS011;10774;42.178;26.578;2022-10-16T06:32:27;10.10;;;7.32;;
21233;SDS011;10774;42.178;26.578;2022-10-16T06:34:52;11.15;;;6.78;;
21233;SDS011;10774;42.178;26.578;2022-10-16T06:37:18;9.65;;;6.40;;
21233;SDS011;10774;42.178;26.578;2022-10-16T06:39:43;7.47;;;5.95;;
21233;SDS011;10774;42.178;26.578;2022-10-16T06:42:08;10.77;;;6.07;;
21233;SDS011;10774;42.178;26.578;2022-10-16T06:44:34;8.98;;;6.90;;
21233;SDS011;10774;42.178;26.578;2022-10-16T06:46:59;10.77;;;6.60;;
21233;SDS011;10774;42.178;26.578;2022-10-16T06:49:24;15.60;;;7.15;;
21233;SDS011;10774;42.178;26.578;2022-10-16T06:51:50;9.77;;;5.50;;
21233;SDS011;10774;42.178;26.578;2022-10-16T06:54:15;17.83;;;8.55;;
21233;SDS011;10774;42.178;26.578;2022-10-16T06:56:41;13.77;;;7.13;;
21233;SDS011;10774;42.178;26.578;2022-10-16T06:59:06;15.13;;;7.43;;
21233;SDS011;10774;42.178;26.578;2022-10-16T07:01:32;14.50;;;6.20;;
21233;SDS011;10774;42.178;26.578;2022-10-16T07:03:58;10.48;;;5.03;;
21233;SDS011;10774;42.178;26.578;2022-10-16T07:06:25;9.90;;;4.53;;
21233;SDS011;10774;42.178;26.578;2022-10-16T07:08:52;11.50;;;4.85;;
21233;SDS011;10774;42.178;26.578;2022-10-16T07:11:18;11.00;;;5.22;;
21233;SDS011;10774;42.178;26.578;2022-10-16T07:13:46;6.38;;;4.43;;
21233;SDS011;10774;42.178;26.578;2022-10-16T07:16:19;8.10;;;4.25;;
21233;SDS011;10774;42.178;26.578;2022-10-16T07:18:46;8.10;;;4.53;;
21233;SDS011;10774;42.178;26.578;2022-10-16T07:21:20;8.10;;;4.00;;
21233;SDS011;10774;42.178;26.578;2022-10-16T07:23:50;6.15;;;3.88;;
21233;SDS011;10774;42.178;26.578;2022-10-16T07:26:17;7.32;;;3.83;;
21233;SDS011;10774;42.178;26.578;2022-10-16T07:28:43;7.97;;;3.72;;
21233;SDS011;10774;42.178;26.578;2022-10-16T07:31:10;5.97;;;3.47;;
21233;SDS011;10774;42.178;26.578;2022-10-16T07:33:39;6.53;;;4.07;;
21233;SDS011;10774;42.178;26.578;2022-10-16T07:36:07;6.95;;;3.53;;
21233;SDS011;10774;42.178;26.578;2022-10-16T07:38:33;3.75;;;3.17;;
21233;SDS011;10774;42.178;26.578;2022-10-16T07:40:59;7.43;;;3.20;;
21233;SDS011;10774;42.178;26.578;2022-10-16T07:43:26;6.13;;;3.47;;
21233;SDS011;10774;42.178;26.578;2022-10-16T07:45:52;9.93;;;3.60;;
21233;SDS011;10774;42.178;26.578;2022-10-16T07:48:17;8.02;;;4.05;;
21233;SDS011;10774;42.178;26.578;2022-10-16T07:50:44;5.90;;;3.58;;
21233;SDS011;10774;42.178;26.578;2022-10-16T07:53:09;6.60;;;3.38;;
21233;SDS011;10774;42.178;26.578;2022-10-16T07:55:35;9.32;;;3.53;;
21233;SDS011;10774;42.178;26.578;2022-10-16T07:58:01;7.03;;;3.33;;
21233;SDS011;10774;42.178;26.578;2022-10-16T08:00:26;6.25;;;3.22;;
21233;SDS011;10774;42.178;26.578;2022-10-16T08:02:52;6.30;;;3.13;;
21233;SDS011;10774;42.178;26.578;2022-10-16T08:05:17;7.22;;;3.65;;
21233;SDS011;10774;42.178;26.578;2022-10-16T08:07:47;9.07;;;3.13;;
21233;SDS011;10774;42.178;26.578;2022-10-16T08:10:17;5.05;;;2.88;;
21233;SDS011;10774;42.178;26.578;2022-10-16T08:12:44;9.95;;;3.70;;
21233;SDS011;10774;42.178;26.578;2022-10-16T08:15:10;7.00;;;3.55;;
21233;SDS011;10774;42.178;26.578;2022-10-16T08:17:35;7.18;;;4.05;;
21233;SDS011;10774;42.178;26.578;2022-10-16T08:20:01;8.23;;;3.92;;
21233;SDS011;10774;42.178;26.578;2022-10-16T08:22:27;7.47;;;3.17;;
21233;SDS011;10774;42.178;26.578;2022-10-16T08:24:53;8.55;;;3.05;;
21233;SDS011;10774;42.178;26.578;2022-10-16T08:27:19;12.90;;;3.50;;
21233;SDS011;10774;42.178;26.578;2022-10-16T08:29:44;4.70;;;2.88;;
21233;SDS011;10774;42.178;26.578;2022-10-16T08:32:10;5.38;;;3.00;;
21233;SDS011;10774;42.178;26.578;2022-10-16T08:34:35;5.22;;;2.92;;
21233;SDS011;10774;42.178;26.578;2022-10-16T08:37:00;6.60;;;3.00;;
21233;SDS011;10774;42.178;26.578;2022-10-16T08:39:28;8.98;;;3.25;;
21233;SDS011;10774;42.178;26.578;2022-10-16T08:50:51;13.60;;;5.47;;
21233;SDS011;10774;42.178;26.578;2022-10-16T08:53:19;8.93;;;3.70;;
21233;SDS011;10774;42.178;26.578;2022-10-16T08:55:49;6.65;;;2.78;;
21233;SDS011;10774;42.178;26.578;2022-10-16T08:58:17;11.10;;;4.63;;
21233;SDS011;10774;42.178;26.578;2022-10-16T09:00:50;9.52;;;4.25;;
21233;SDS011;10774;42.178;26.578;2022-10-16T09:08:56;6.53;;;2.83;;
21233;SDS011;10774;42.178;26.578;2022-10-16T09:17:20;4.28;;;3.13;;
21233;SDS011;10774;42.178;26.578;2022-10-16T09:20:02;5.55;;;2.85;;
21233;SDS011;10774;42.178;26.578;2022-10-16T09:22:38;4.47;;;2.60;;
21233;SDS011;10774;42.178;26.578;2022-10-16T09:25:14;7.93;;;3.15;;
21233;SDS011;10774;42.178;26.578;2022-10-16T09:27:44;5.65;;;2.92;;
21233;SDS011;10774;42.178;26.578;2022-10-16T09:30:12;5.43;;;2.70;;
21233;SDS011;10774;42.178;26.578;2022-10-16T09:32:40;6.80;;;3.33;;
21233;SDS011;10774;42.178;26.578;2022-10-16T09:35:11;4.00;;;2.83;;
21233;SDS011;10774;42.178;26.578;2022-10-16T09:37:39;6.28;;;2.70;;
21233;SDS011;10774;42.178;26.578;2022-10-16T09:40:12;4.22;;;2.75;;
21233;SDS011;10774;42.178;26.578;2022-10-16T09:42:38;8.00;;;3.08;;
21233;SDS011;10774;42.178;26.578;2022-10-16T09:45:04;7.25;;;2.97;;
21233;SDS011;10774;42.178;26.578;2022-10-16T09:47:31;8.40;;;3.58;;
21233;SDS011;10774;42.178;26.578;2022-10-16T09:49:58;8.55;;;3.42;;
21233;SDS011;10774;42.178;26.578;2022-10-16T09:52:27;7.47;;;3.40;;
21233;SDS011;10774;42.178;26.578;2022-10-16T09:57:24;6.35;;;3.03;;
21233;SDS011;10774;42.178;26.578;2022-10-16T09:59:51;6.88;;;2.83;;
21233;SDS011;10774;42.178;26.578;2022-10-16T10:02:29;5.40;;;2.47;;
21233;SDS011;10774;42.178;26.578;2022-10-16T10:04:56;7.45;;;2.75;;
21233;SDS011;10774;42.178;26.578;2022-10-16T10:07:26;6.57;;;3.00;;
21233;SDS011;10774;42.178;26.578;2022-10-16T10:10:04;5.45;;;2.45;;
21233;SDS011;10774;42.178;26.578;2022-10-16T10:12:31;4.65;;;2.30;;
21233;SDS011;10774;42.178;26.578;2022-10-16T10:15:21;5.28;;;3.08;;
21233;SDS011;10774;42.178;26.578;2022-10-16T10:17:57;7.13;;;3.40;;
21233;SDS011;10774;42.178;26.578;2022-10-16T10:22:56;9.02;;;3.22;;
21233;SDS011;10774;42.178;26.578;2022-10-16T10:25:25;5.45;;;2.60;;
21233;SDS011;10774;42.178;26.578;2022-10-16T10:30:47;10.00;;;4.07;;
21233;SDS011;10774;42.178;26.578;2022-10-16T11:02:38;7.25;;;3.00;;
21233;SDS011;10774;42.178;26.578;2022-10-16T11:05:14;6.25;;;2.67;;
21233;SDS011;10774;42.178;26.578;2022-10-16T11:08:31;7.07;;;3.17;;
21233;SDS011;10774;42.178;26.578;2022-10-16T11:10:54;5.35;;;3.83;;
21233;SDS011;10774;42.178;26.578;2022-10-16T11:13:35;9.57;;;4.80;;
21233;SDS011;10774;42.178;26.578;2022-10-16T11:16:09;7.72;;;3.63;;
21233;SDS011;10774;42.178;26.578;2022-10-16T11:18:52;7.78;;;3.22;;
21233;SDS011;10774;42.178;26.578;2022-10-16T11:21:26;5.22;;;2.70;;
21233;SDS011;10774;42.178;26.578;2022-10-16T11:26:26;4.93;;;2.53;;
21233;SDS011;10774;42.178;26.578;2022-10-16T11:28:55;6.32;;;2.42;;
21233;SDS011;10774;42.178;26.578;2022-10-16T11:31:25;5.93;;;2.60;;
21233;SDS011;10774;42.178;26.578;2022-10-16T11:36:49;10.32;;;3.53;;
21233;SDS011;10774;42.178;26.578;2022-10-16T11:39:23;6.47;;;2.90;;
21233;SDS011;10774;42.178;26.578;2022-10-16T11:47:50;4.55;;;2.75;;
21233;SDS011;10774;42.178;26.578;2022-10-16T11:50:39;4.00;;;2.20;;
21233;SDS011;10774;42.178;26.578;2022-10-16T11:55:53;8.40;;;2.72;;
21233;SDS011;10774;42.178;26.578;2022-10-16T12:01:35;2.38;;;2.17;;
21233;SDS011;10774;42.178;26.578;2022-10-16T12:03:56;4.60;;;2.67;;
21233;SDS011;10774;42.178;26.578;2022-10-16T12:09:49;8.95;;;3.45;;
21233;SDS011;10774;42.178;26.578;2022-10-16T12:17:54;15.20;;;3.92;;
21233;SDS011;10774;42.178;26.578;2022-10-16T12:20:28;6.18;;;3.28;;
21233;SDS011;10774;42.178;26.578;2022-10-16T12:22:59;5.53;;;2.05;;
21233;SDS011;10774;42.178;26.578;2022-10-16T12:28:04;4.47;;;2.20;;
21233;SDS011;10774;42.178;26.578;2022-10-16T12:30:32;6.10;;;2.30;;
21233;SDS011;10774;42.178;26.578;2022-10-16T12:33:01;5.47;;;2.00;;
21233;SDS011;10774;42.178;26.578;2022-10-16T12:35:47;9.23;;;2.45;;
21233;SDS011;10774;42.178;26.578;2022-10-16T12:38:30;6.65;;;2.72;;
21233;SDS011;10774;42.178;26.578;2022-10-16T12:41:07;3.15;;;2.15;;
21233;SDS011;10774;42.178;26.578;2022-10-16T12:43:36;4.47;;;1.98;;
21233;SDS011;10774;42.178;26.578;2022-10-16T12:48:37;4.72;;;2.35;;
21233;SDS011;10774;42.178;26.578;2022-10-16T12:51:21;4.32;;;1.98;;
21233;SDS011;10774;42.178;26.578;2022-10-16T12:53:59;8.30;;;2.67;;
21233;SDS011;10774;42.178;26.578;2022-10-16T12:59:07;13.87;;;4.50;;
21233;SDS011;10774;42.178;26.578;2022-10-16T13:01:42;13.75;;;11.40;;
21233;SDS011;10774;42.178;26.578;2022-10-16T13:05:05;16.75;;;11.13;;
21233;SDS011;10774;42.178;26.578;2022-10-16T13:10:15;6.28;;;3.38;;
21233;SDS011;10774;42.178;26.578;2022-10-16T13:13:31;25.50;;;19.30;;
21233;SDS011;10774;42.178;26.578;2022-10-16T13:18:57;3.97;;;1.85;;
21233;SDS011;10774;42.178;26.578;2022-10-16T13:21:58;12.68;;;8.57;;
21233;SDS011;10774;42.178;26.578;2022-10-16T13:30:18;21.80;;;6.90;;
21233;SDS011;10774;42.178;26.578;2022-10-16T13:32:50;12.25;;;4.93;;
21233;SDS011;10774;42.178;26.578;2022-10-16T13:35:25;7.07;;;2.78;;
21233;SDS011;10774;42.178;26.578;2022-10-16T13:40:30;7.40;;;3.90;;
21233;SDS011;10774;42.178;26.578;2022-10-16T13:42:55;6.47;;;2.50;;
21233;SDS011;10774;42.178;26.578;2022-10-16T13:45:22;5.00;;;2.78;;
21233;SDS011;10774;42.178;26.578;2022-10-16T13:47:50;6.68;;;3.70;;
21233;SDS011;10774;42.178;26.578;2022-10-16T13:50:26;10.10;;;6.13;;
21233;SDS011;10774;42.178;26.578;2022-10-16T13:52:52;13.15;;;7.43;;
21233;SDS011;10774;42.178;26.578;2022-10-16T13:55:28;6.05;;;2.83;;
21233;SDS011;10774;42.178;26.578;2022-10-16T13:58:03;5.68;;;3.38;;
21233;SDS011;10774;42.178;26.578;2022-10-16T14:00:30;7.00;;;3.25;;
21233;SDS011;10774;42.178;26.578;2022-10-16T14:03:07;6.10;;;2.42;;
21233;SDS011;10774;42.178;26.578;2022-10-16T14:05:45;5.40;;;3.20;;
21233;SDS011;10774;42.178;26.578;2022-10-16T14:08:14;6.35;;;3.22;;
21233;SDS011;10774;42.178;26.578;2022-10-16T14:10:39;3.92;;;2.33;;
21233;SDS011;10774;42.178;26.578;2022-10-16T14:13:05;3.80;;;2.40;;
21233;SDS011;10774;42.178;26.578;2022-10-16T14:15:33;5.00;;;2.53;;
21233;SDS011;10774;42.178;26.578;2022-10-16T14:18:00;4.80;;;2.63;;
21233;SDS011;10774;42.178;26.578;2022-10-16T14:20:27;3.80;;;3.03;;
21233;SDS011;10774;42.178;26.578;2022-10-16T14:23:03;7.30;;;3.13;;
21233;SDS011;10774;42.178;26.578;2022-10-16T14:25:44;5.80;;;3.42;;
21233;SDS011;10774;42.178;26.578;2022-10-16T14:30:35;6.53;;;3.78;;
21233;SDS011;10774;42.178;26.578;2022-10-16T14:33:05;7.72;;;3.30;;
21233;SDS011;10774;42.178;26.578;2022-10-16T14:35:44;11.82;;;3.05;;
21233;SDS011;10774;42.178;26.578;2022-10-16T14:38:18;7.43;;;3.55;;
21233;SDS011;10774;42.178;26.578;2022-10-16T14:40:48;8.07;;;3.40;;
21233;SDS011;10774;42.178;26.578;2022-10-16T14:43:14;6.15;;;3.55;;
21233;SDS011;10774;42.178;26.578;2022-10-16T14:45:50;8.02;;;3.80;;
21233;SDS011;10774;42.178;26.578;2022-10-16T14:48:18;6.20;;;2.60;;
21233;SDS011;10774;42.178;26.578;2022-10-16T14:50:44;7.13;;;2.20;;
21233;SDS011;10774;42.178;26.578;2022-10-16T14:53:13;7.55;;;2.72;;
21233;SDS011;10774;42.178;26.578;2022-10-16T14:55:40;4.90;;;3.05;;
21233;SDS011;10774;42.178;26.578;2022-10-16T14:58:09;6.78;;;3.72;;
21233;SDS011;10774;42.178;26.578;2022-10-16T15:00:40;7.80;;;3.67;;
21233;SDS011;10774;42.178;26.578;2022-10-16T15:03:06;8.45;;;3.33;;
21233;SDS011;10774;42.178;26.578;2022-10-16T15:05:31;8.38;;;2.90;;
21233;SDS011;10774;42.178;26.578;2022-10-16T15:07:57;5.57;;;3.00;;
21233;SDS011;10774;42.178;26.578;2022-10-16T15:10:23;4.25;;;2.28;;
21233;SDS011;10774;42.178;26.578;2022-10-16T15:12:51;8.15;;;3.05;;
21233;SDS011;10774;42.178;26.578;2022-10-16T15:17:48;6.93;;;2.97;;
21233;SDS011;10774;42.178;26.578;2022-10-16T15:20:17;7.10;;;3.50;;
21233;SDS011;10774;42.178;26.578;2022-10-16T15:22:42;5.68;;;3.40;;
21233;SDS011;10774;42.178;26.578;2022-10-16T15:25:28;5.63;;;2.80;;
21233;SDS011;10774;42.178;26.578;2022-10-16T15:28:05;10.90;;;3.85;;
21233;SDS011;10774;42.178;26.578;2022-10-16T15:30:31;5.53;;;3.13;;
21233;SDS011;10774;42.178;26.578;2022-10-16T15:32:57;7.50;;;4.05;;
21233;SDS011;10774;42.178;26.578;2022-10-16T15:35:23;7.63;;;4.70;;
21233;SDS011;10774;42.178;26.578;2022-10-16T15:37:49;10.75;;;5.25;;
21233;SDS011;10774;42.178;26.578;2022-10-16T15:40:14;11.57;;;6.65;;
21233;SDS011;10774;42.178;26.578;2022-10-16T15:42:42;11.68;;;7.43;;
21233;SDS011;10774;42.178;26.578;2022-10-16T15:45:08;21.70;;;12.27;;
21233;SDS011;10774;42.178;26.578;2022-10-16T15:47:34;25.27;;;13.23;;
21233;SDS011;10774;42.178;26.578;2022-10-16T15:49:59;27.65;;;13.30;;
21233;SDS011;10774;42.178;26.578;2022-10-16T15:52:25;28.48;;;11.32;;
21233;SDS011;10774;42.178;26.578;2022-10-16T15:54:50;26.42;;;11.15;;
21233;SDS011;10774;42.178;26.578;2022-10-16T15:57:16;20.13;;;10.18;;
21233;SDS011;10774;42.178;26.578;2022-10-16T15:59:41;20.80;;;10.32;;
21233;SDS011;10774;42.178;26.578;2022-10-16T16:02:08;19.23;;;11.63;;
21233;SDS011;10774;42.178;26.578;2022-10-16T16:04:34;22.83;;;11.30;;
21233;SDS011;10774;42.178;26.578;2022-10-16T16:06:59;15.50;;;9.73;;
21233;SDS011;10774;42.178;26.578;2022-10-16T16:09:26;17.10;;;8.88;;
21233;SDS011;10774;42.178;26.578;2022-10-16T16:11:53;17.65;;;7.97;;
21233;SDS011;10774;42.178;26.578;2022-10-16T16:14:19;14.95;;;6.22;;
21233;SDS011;10774;42.178;26.578;2022-10-16T16:16:44;13.88;;;4.82;;
21233;SDS011;10774;42.178;26.578;2022-10-16T16:19:10;9.75;;;4.13;;
21233;SDS011;10774;42.178;26.578;2022-10-16T16:21:35;8.90;;;4.35;;
21233;SDS011;10774;42.178;26.578;2022-10-16T16:24:01;8.80;;;4.15;;
21233;SDS011;10774;42.178;26.578;2022-10-16T16:26:32;11.07;;;6.15;;
21233;SDS011;10774;42.178;26.578;2022-10-16T16:29:01;8.85;;;5.85;;
21233;SDS011;10774;42.178;26.578;2022-10-16T16:31:28;11.32;;;6.05;;
21233;SDS011;10774;42.178;26.578;2022-10-16T16:33:55;9.20;;;4.70;;
21233;SDS011;10774;42.178;26.578;2022-10-16T16:36:21;12.05;;;3.47;;
21233;SDS011;10774;42.178;26.578;2022-10-16T16:38:47;6.70;;;4.25;;
21233;SDS011;10774;42.178;26.578;2022-10-16T16:41:14;14.98;;;6.35;;
21233;SDS011;10774;42.178;26.578;2022-10-16T16:43:44;22.13;;;7.28;;